Airfield :
LOGIN :

Register | Disclaimer

   EN    FR    IT 

 










Legend :    VFR   Marginal VFR   IFR   Intensive IFR   Very Intensive IFR
Visi :
Ceiling :
>= 8 km
>= 3000ft
5 to 8 km
1000 to 3000 ft
1500m to 5 km
500 to 1000 ft
800 to 1500m
200 to 500 ft
< 800m
< 200 ft
Symbols :   Thunderstorms  Fog  Heavy snow  Heavy precipitations  Wind > 20 kt
SIGMETs :     Misc.  Thunderstorms  Icing  Turbulence  Mountain Waves  Volcanic Ashes






- Airport Elevation : 138 ft
- IATA code : BIO


LEBB - Bilbao

CURRENT METAR :
  • 210300Z 11004KT 080V140 9999 FEW035 BKN055 10/10 Q1016 TEMPO SHRA SCT030TCU

EXPIRED METARs :
  • 210230Z AUTO 10003KT 070V130 9999 BKN057 10/10 Q1016
  • 210200Z AUTO 07004KT 9999 FEW050 SCT060 10/10 Q1017
  • 210130Z AUTO VRB01KT 9999 FEW039 10/10 Q1016
  • 210100Z AUTO VRB02KT 9999 FEW038 SCT067 10/10 Q1016
  • 210030Z AUTO 10004KT 050V140 9999 SCT060 11/10 Q1016

TAF TAF LEBB
Valid from the 21 at 00:00 until the 22 at 00:00 UTC


202300Z 2100/2124 VRB05KT 9999 SCT030 TX17/2113Z TN07/2107Z
PROB30
TEMPO 2100/2106 3000 RA SHRA BKN014 SCT025TCU
PROB30
TEMPO 2103/2106 SHRA TS SCT025TCU SCT030CB



MET'MAP, your aeronautical weather chart ! - Copyright ORBIFLY December 2007 - Disclaimer

ORBIFLY MET'MAP TEAM :

Programming & Development : Alexandra Zaïnal
Concept & Development : Baudouin d'Aumeries
Co-Development & Prog : Marc-Olivier Méhu
Technical & hardware support : Manuel Goepfert

Contact : metmap@orbifly.com




SOURCES & CREDITS :

   NOAA